createdAt,value
2022-09-07T00:01:01.030Z,70.37
2022-09-07T00:02:04.332Z,70.36
2022-09-07T00:03:08.981Z,70.48
2022-09-07T00:04:12.139Z,70.24
2022-09-07T00:05:15.318Z,70.53
2022-09-07T00:06:19.800Z,70.43
2022-09-07T00:07:24.178Z,70.36
2022-09-07T00:08:30.182Z,70.38
2022-09-07T00:09:33.214Z,70.34
2022-09-07T00:10:36.577Z,70.57
2022-09-07T00:11:42.714Z,70.51
2022-09-07T00:12:45.801Z,70.93
2022-09-07T00:13:49.922Z,71.07
2022-09-07T00:14:53.109Z,70.38
2022-09-07T00:15:57.561Z,70.48
2022-09-07T00:17:00.588Z,70.49
2022-09-07T00:18:03.853Z,70.82
2022-09-07T00:19:07.839Z,71.27
2022-09-07T00:20:12.207Z,71.54
2022-09-07T00:21:17.270Z,71.22
2022-09-07T00:22:20.337Z,71.09
2022-09-07T00:23:25.851Z,70.68
2022-09-07T00:24:29.045Z,70.63
2022-09-07T00:25:32.496Z,70.57
2022-09-07T00:26:36.864Z,70.49
2022-09-07T00:27:40.002Z,70.40
2022-09-07T00:28:46.504Z,70.62
2022-09-07T00:29:49.654Z,70.58
2022-09-07T00:30:52.801Z,70.58
2022-09-07T00:31:55.786Z,70.24
2022-09-07T00:32:59.015Z,70.40
2022-09-07T00:34:02.793Z,70.88
2022-09-07T00:35:06.154Z,70.39
2022-09-07T00:36:09.402Z,70.77
2022-09-07T00:37:15.472Z,70.75
2022-09-07T00:38:18.456Z,70.62
2022-09-07T00:39:24.896Z,70.98
2022-09-07T00:40:28.083Z,70.58
2022-09-07T00:41:31.205Z,70.83
2022-09-07T00:42:34.643Z,70.98
2022-09-07T00:43:39.215Z,70.95
2022-09-07T00:44:42.305Z,71.32
2022-09-07T00:45:45.801Z,71.51
2022-09-07T00:46:48.930Z,71.91
2022-09-07T00:47:55.976Z,71.68
2022-09-07T00:49:08.675Z,71.27
2022-09-07T00:50:30.037Z,71.25
2022-09-07T00:51:35.040Z,71.19
2022-09-07T00:52:39.809Z,71.07
2022-09-07T00:53:56.275Z,71.26
2022-09-07T00:55:03.828Z,71.07
2022-09-07T00:56:08.198Z,70.86
2022-09-07T00:57:12.747Z,70.99
2022-09-07T00:58:16.505Z,71.24
2022-09-07T00:59:22.377Z,71.48
2022-09-07T01:00:28.394Z,71.08
2022-09-07T01:01:34.477Z,71.11
2022-09-07T01:02:38.645Z,71.21
2022-09-07T01:03:44.342Z,71.40
2022-09-07T01:04:49.844Z,71.26
2022-09-07T01:06:04.176Z,71.30
2022-09-07T01:07:07.169Z,71.73
2022-09-07T01:08:13.406Z,71.31
2022-09-07T01:09:18.697Z,71.13
2022-09-07T01:10:24.861Z,71.19
2022-09-07T01:11:28.210Z,71.19
2022-09-07T01:12:31.713Z,71.28
2022-09-07T01:13:35.140Z,71.74
2022-09-07T01:14:41.459Z,71.74
2022-09-07T01:16:08.268Z,71.56
2022-09-07T01:17:32.211Z,72.06
2022-09-07T01:18:41.741Z,72.33
2022-09-07T01:19:53.584Z,72.12
2022-09-07T01:21:15.555Z,71.89
2022-09-07T01:22:39.354Z,71.92
2022-09-07T01:23:58.012Z,71.83
2022-09-07T01:25:04.218Z,71.93
2022-09-07T01:26:07.174Z,71.71
2022-09-07T01:27:27.151Z,71.52
2022-09-07T01:28:34.147Z,71.68
2022-09-07T01:29:59.402Z,71.54
2022-09-07T01:31:02.489Z,71.71
2022-09-07T01:32:28.724Z,71.97
2022-09-07T01:33:57.865Z,72.22
2022-09-07T01:35:03.612Z,72.03
2022-09-07T01:36:20.344Z,72.35
2022-09-07T01:37:38.188Z,72.60
2022-09-07T01:38:49.537Z,72.68
2022-09-07T01:40:08.228Z,72.31
2022-09-07T01:41:17.029Z,72.57
2022-09-07T01:42:23.884Z,72.56
2022-09-07T01:43:27.292Z,72.59
2022-09-07T01:44:34.609Z,72.49
2022-09-07T01:45:40.904Z,72.35
2022-09-07T01:46:54.225Z,72.01
2022-09-07T01:47:59.046Z,72.39
2022-09-07T01:49:10.596Z,72.31
2022-09-07T01:50:34.006Z,72.37
2022-09-07T01:51:39.349Z,72.15
2022-09-07T01:52:47.666Z,71.85
2022-09-07T01:53:54.026Z,71.99
2022-09-07T01:55:10.369Z,71.87
2022-09-07T01:56:16.009Z,71.92
2022-09-07T01:57:23.139Z,71.95
2022-09-07T01:58:27.191Z,71.76
2022-09-07T01:59:33.041Z,71.64
2022-09-07T02:00:40.182Z,71.59
2022-09-07T02:01:53.168Z,72.03
2022-09-07T02:03:00.351Z,72.57
2022-09-07T02:04:08.191Z,72.26
2022-09-07T02:05:14.114Z,71.82
2022-09-07T02:06:17.219Z,71.69
2022-09-07T02:07:31.733Z,71.49
2022-09-07T02:08:36.291Z,71.67
2022-09-07T02:09:42.169Z,71.72
2022-09-07T02:11:02.251Z,71.57
2022-09-07T02:12:09.774Z,71.69
2022-09-07T02:13:22.336Z,71.77
2022-09-07T02:14:29.368Z,71.68
2022-09-07T02:15:53.889Z,71.95
2022-09-07T02:17:03.419Z,72.21
2022-09-07T02:18:08.939Z,72.45
2022-09-07T02:19:16.955Z,72.35
2022-09-07T02:20:22.266Z,72.30
2022-09-07T02:21:34.760Z,72.32
2022-09-07T02:22:40.183Z,72.11
2022-09-07T02:23:55.276Z,72.15
2022-09-07T02:25:02.702Z,72.17
2022-09-07T02:26:10.318Z,72.22
2022-09-07T02:27:21.931Z,72.32
2022-09-07T02:28:30.934Z,72.43
2022-09-07T02:29:34.070Z,72.51
2022-09-07T02:30:37.426Z,72.96
2022-09-07T02:31:40.308Z,72.97
2022-09-07T02:32:43.307Z,72.93
2022-09-07T02:33:46.408Z,72.45
2022-09-07T02:34:51.701Z,72.36
2022-09-07T02:35:54.824Z,72.60
2022-09-07T02:36:58.445Z,72.40
2022-09-07T02:38:03.538Z,72.20
2022-09-07T02:39:06.455Z,72.43
2022-09-07T02:40:10.177Z,72.38
2022-09-07T02:41:47.265Z,72.33
2022-09-07T02:42:50.329Z,72.38
2022-09-07T02:43:56.887Z,72.21
2022-09-07T02:45:00.143Z,72.11
2022-09-07T02:46:14.788Z,72.10
2022-09-07T02:47:23.663Z,72.37
2022-09-07T02:48:46.890Z,72.27
2022-09-07T02:49:55.539Z,72.43
2022-09-07T02:51:10.730Z,72.50
2022-09-07T02:52:16.938Z,72.69
2022-09-07T02:53:19.982Z,72.91
2022-09-07T02:54:41.658Z,72.96
2022-09-07T02:55:47.340Z,72.98
2022-09-07T02:56:56.064Z,72.86
2022-09-07T02:58:01.758Z,73.07
2022-09-07T02:59:21.134Z,73.13
2022-09-07T03:00:28.585Z,73.75
2022-09-07T03:01:34.458Z,72.97
2022-09-07T03:02:52.712Z,72.43
2022-09-07T03:04:01.339Z,72.59
2022-09-07T03:05:16.679Z,72.50
2022-09-07T03:06:23.976Z,72.47
2022-09-07T03:07:34.547Z,72.26
2022-09-07T03:08:41.464Z,72.30
2022-09-07T03:09:51.461Z,72.44
2022-09-07T03:10:54.524Z,72.50
2022-09-07T03:11:58.567Z,72.60
2022-09-07T03:13:01.474Z,72.34
2022-09-07T03:14:13.475Z,72.57
2022-09-07T03:15:19.184Z,72.73
2022-09-07T03:16:22.126Z,72.66
2022-09-07T03:17:25.449Z,73.07
2022-09-07T03:18:28.744Z,72.79
2022-09-07T03:19:32.005Z,73.05
2022-09-07T03:20:37.486Z,72.93
2022-09-07T03:21:40.402Z,72.96
2022-09-07T03:22:43.919Z,72.73
2022-09-07T03:23:51.179Z,72.76
2022-09-07T03:24:54.677Z,72.85
2022-09-07T03:25:57.645Z,72.64
2022-09-07T03:27:00.833Z,73.13
2022-09-07T03:28:07.185Z,73.35
2022-09-07T03:29:10.219Z,73.48
2022-09-07T03:30:13.723Z,73.17
2022-09-07T03:31:16.729Z,73.68
2022-09-07T03:32:19.681Z,73.38
2022-09-07T03:33:22.876Z,73.27
2022-09-07T03:34:32.365Z,73.01
2022-09-07T03:35:35.798Z,73.18
2022-09-07T03:36:39.195Z,73.24
2022-09-07T03:37:42.358Z,73.29
2022-09-07T03:38:45.376Z,73.12
2022-09-07T03:39:50.404Z,73.25
2022-09-07T03:41:03.844Z,72.98
2022-09-07T03:42:07.145Z,72.89
2022-09-07T03:43:10.150Z,73.30
2022-09-07T03:44:13.149Z,73.41
2022-09-07T03:45:16.415Z,73.19
2022-09-07T03:46:19.886Z,73.48
2022-09-07T03:47:22.794Z,73.11
2022-09-07T03:48:26.656Z,73.19
2022-09-07T03:49:29.612Z,73.23
2022-09-07T03:50:32.564Z,73.77
2022-09-07T03:51:35.968Z,74.13
2022-09-07T03:52:41.592Z,73.72
2022-09-07T03:53:45.164Z,73.75
2022-09-07T03:54:48.138Z,73.50
2022-09-07T03:55:58.089Z,73.83
2022-09-07T03:57:01.056Z,73.80
2022-09-07T03:58:04.119Z,73.69
2022-09-07T03:59:06.998Z,73.72
2022-09-07T04:00:10.404Z,73.74
2022-09-07T04:01:16.198Z,73.84
2022-09-07T04:02:19.321Z,73.95
2022-09-07T04:03:22.674Z,73.81
2022-09-07T04:04:25.608Z,74.10
2022-09-07T04:05:28.544Z,73.86
2022-09-07T04:06:32.235Z,73.74
2022-09-07T04:07:35.220Z,74.01
2022-09-07T04:08:39.167Z,73.66
2022-09-07T04:09:42.279Z,73.71
2022-09-07T04:10:45.202Z,73.85
2022-09-07T04:11:48.188Z,74.13
2022-09-07T04:12:54.256Z,74.32
2022-09-07T04:13:57.228Z,74.31
2022-09-07T04:15:00.325Z,74.13
2022-09-07T04:16:18.152Z,74.37
2022-09-07T04:17:21.226Z,74.27
2022-09-07T04:18:25.187Z,74.19
2022-09-07T04:19:29.230Z,73.84
2022-09-07T04:20:32.145Z,73.75
2022-09-07T04:21:37.815Z,73.72
2022-09-07T04:22:40.829Z,73.56
2022-09-07T04:23:44.344Z,73.92
2022-09-07T04:24:47.258Z,74.16
2022-09-07T04:25:51.074Z,74.46
2022-09-07T04:26:56.960Z,74.33
2022-09-07T04:28:00.075Z,74.42
2022-09-07T04:29:04.437Z,74.11
2022-09-07T04:30:07.726Z,73.96
2022-09-07T04:31:10.974Z,74.57
2022-09-07T04:32:15.947Z,74.57
2022-09-07T04:33:19.128Z,73.97
2022-09-07T04:34:22.224Z,73.73
2022-09-07T04:35:25.148Z,73.89
2022-09-07T04:36:28.865Z,73.95
2022-09-07T04:37:34.471Z,73.66
2022-09-07T04:38:37.655Z,73.81
2022-09-07T04:39:40.626Z,73.55
2022-09-07T04:40:44.095Z,73.74
2022-09-07T04:41:46.992Z,73.44
2022-09-07T04:42:50.021Z,73.52
2022-09-07T04:44:00.966Z,73.48
2022-09-07T04:45:04.968Z,73.81
2022-09-07T04:46:11.384Z,73.81
2022-09-07T04:47:14.326Z,73.57
2022-09-07T04:48:24.525Z,73.83
2022-09-07T04:49:27.504Z,73.41
2022-09-07T04:50:30.456Z,73.46
2022-09-07T04:51:33.379Z,73.44
2022-09-07T04:52:36.320Z,73.57
2022-09-07T04:53:39.212Z,73.32
2022-09-07T04:54:42.762Z,73.69
2022-09-07T04:55:46.009Z,74.19
2022-09-07T04:56:48.920Z,74.55
2022-09-07T04:57:51.925Z,74.74
2022-09-07T04:58:56.835Z,74.28
2022-09-07T05:00:00.411Z,74.65
2022-09-07T05:01:05.163Z,74.90
2022-09-07T05:02:08.231Z,74.69
2022-09-07T05:03:11.264Z,74.56
2022-09-07T05:04:14.259Z,74.52
2022-09-07T05:05:17.200Z,74.75
2022-09-07T05:06:20.873Z,75.16
2022-09-07T05:07:24.081Z,74.79
2022-09-07T05:08:27.302Z,74.98
2022-09-07T05:09:30.456Z,74.55
2022-09-07T05:10:33.689Z,74.80
2022-09-07T05:11:36.587Z,74.68
2022-09-07T05:12:39.600Z,74.68
2022-09-07T05:13:42.585Z,75.57
2022-09-07T05:14:45.760Z,75.36
2022-09-07T05:15:48.601Z,75.27
2022-09-07T05:16:51.621Z,75.04
2022-09-07T05:17:54.735Z,75.13
2022-09-07T05:18:58.874Z,75.20
2022-09-07T05:20:02.070Z,75.03
2022-09-07T05:21:09.663Z,75.13
2022-09-07T05:22:15.629Z,75.15
2022-09-07T05:23:19.140Z,74.93
2022-09-07T05:24:22.334Z,74.93
2022-09-07T05:25:31.766Z,74.99
2022-09-07T05:26:35.729Z,75.03
2022-09-07T05:27:39.067Z,75.25
2022-09-07T05:28:42.236Z,75.22
2022-09-07T05:32:17.320Z,75.45
2022-09-07T05:33:20.305Z,75.19
2022-09-07T05:34:31.630Z,75.22
2022-09-07T05:35:35.107Z,75.06
2022-09-07T05:36:40.616Z,75.30
2022-09-07T05:37:43.598Z,75.26
2022-09-07T05:38:47.108Z,75.37
2022-09-07T05:39:52.086Z,74.87
2022-09-07T05:40:55.021Z,74.69
2022-09-07T05:42:00.701Z,74.71
2022-09-07T05:43:03.717Z,74.53
2022-09-07T05:45:30.225Z,75.28
2022-09-07T05:46:33.882Z,75.00
2022-09-07T05:47:38.264Z,75.48
2022-09-07T05:48:41.749Z,74.96
2022-09-07T05:49:44.742Z,75.12
2022-09-07T05:50:51.819Z,75.40
2022-09-07T05:51:54.774Z,75.31
2022-09-07T05:53:00.953Z,74.97
2022-09-07T05:54:07.125Z,74.83
2022-09-07T05:55:28.968Z,74.79
2022-09-07T05:56:36.272Z,74.78
2022-09-07T05:57:39.374Z,75.26
2022-09-07T05:58:42.296Z,75.54
2022-09-07T05:59:45.181Z,75.26
2022-09-07T06:00:48.099Z,75.11
2022-09-07T06:01:51.131Z,74.91
2022-09-07T06:02:54.342Z,75.18
2022-09-07T06:03:57.439Z,75.40
2022-09-07T06:05:00.342Z,75.83
2022-09-07T06:06:04.624Z,75.90
2022-09-07T06:07:21.581Z,76.45
2022-09-07T06:08:28.588Z,76.46
2022-09-07T06:09:31.650Z,76.53
2022-09-07T06:10:45.293Z,76.19
2022-09-07T06:11:48.569Z,75.73
2022-09-07T06:12:51.570Z,76.06
2022-09-07T06:13:54.546Z,76.46
2022-09-07T06:14:57.491Z,76.91
2022-09-07T06:16:05.102Z,76.83
2022-09-07T06:17:10.568Z,76.57
2022-09-07T06:18:13.692Z,76.62
2022-09-07T06:19:16.691Z,76.38
2022-09-07T06:20:20.042Z,76.94
2022-09-07T06:21:24.165Z,76.79
2022-09-07T06:22:30.753Z,77.17
2022-09-07T06:23:35.044Z,77.67
2022-09-07T06:24:39.669Z,77.74
2022-09-07T06:25:49.215Z,78.04
2022-09-07T06:26:52.093Z,77.93
2022-09-07T06:27:55.069Z,78.24
2022-09-07T06:28:58.607Z,78.28
2022-09-07T06:30:01.604Z,78.26
2022-09-07T06:31:07.699Z,78.18
2022-09-07T06:33:35.726Z,77.99
2022-09-07T06:34:38.819Z,76.63
2022-09-07T06:35:41.969Z,76.81
2022-09-07T06:36:44.965Z,77.54
2022-09-07T06:37:47.893Z,77.97
2022-09-07T06:38:51.540Z,78.16
2022-09-07T06:39:55.649Z,78.16
2022-09-07T06:42:25.979Z,77.31
2022-09-07T06:43:29.068Z,77.15
2022-09-07T06:44:32.115Z,77.58
2022-09-07T06:45:35.052Z,75.97
2022-09-07T06:48:01.260Z,76.09
2022-09-07T06:49:04.688Z,76.36
2022-09-07T06:50:07.947Z,76.18
2022-09-07T06:51:15.651Z,75.90
2022-09-07T06:52:20.479Z,75.85
2022-09-07T06:55:57.530Z,75.04
2022-09-07T06:57:00.606Z,74.73
2022-09-07T06:58:03.657Z,74.39
2022-09-07T06:59:07.040Z,74.06
2022-09-07T07:00:10.509Z,73.59
2022-09-07T07:01:15.153Z,73.29
2022-09-07T07:02:19.800Z,72.45
2022-09-07T07:03:23.175Z,72.11
2022-09-07T07:04:26.481Z,71.94
2022-09-07T07:05:29.524Z,71.60
2022-09-07T07:06:37.462Z,71.38
2022-09-07T07:07:40.450Z,71.27
2022-09-07T07:08:43.654Z,70.70
2022-09-07T07:09:46.795Z,70.29
2022-09-07T07:10:50.594Z,69.44
2022-09-07T07:11:53.600Z,68.82
2022-09-07T07:12:59.362Z,68.53
2022-09-07T07:14:02.313Z,68.52
2022-09-07T07:15:05.790Z,68.28
2022-09-07T07:16:10.202Z,67.71
2022-09-07T07:17:13.520Z,67.25
2022-09-07T07:18:21.247Z,66.89
2022-09-07T07:19:24.415Z,67.15
2022-09-07T07:20:27.418Z,67.10
2022-09-07T07:21:42.884Z,67.12
2022-09-07T07:22:53.279Z,66.82
2022-09-07T07:23:56.244Z,66.92
2022-09-07T07:24:59.593Z,66.66
2022-09-07T07:26:03.970Z,66.49
2022-09-07T07:27:07.377Z,66.14
2022-09-07T07:29:33.425Z,65.31
2022-09-07T07:30:36.378Z,65.28
2022-09-07T07:31:39.499Z,65.14
2022-09-07T07:32:42.994Z,65.00
2022-09-07T07:33:48.224Z,64.93
2022-09-07T07:34:51.195Z,64.54
2022-09-07T07:35:54.150Z,64.48
2022-09-07T07:36:57.029Z,64.41
2022-09-07T07:42:16.160Z,62.95
2022-09-07T07:43:18.936Z,62.92
2022-09-07T07:44:21.829Z,63.01
2022-09-07T07:46:51.115Z,62.56
2022-09-07T07:47:54.280Z,62.28
2022-09-07T07:48:57.380Z,61.94
2022-09-07T07:51:25.649Z,61.78
2022-09-07T07:53:41.164Z,61.47
2022-09-07T07:53:58.991Z,61.20
2022-09-07T07:55:42.512Z,60.78
2022-09-07T07:56:25.380Z,60.73
2022-09-07T07:57:28.960Z,60.38
2022-09-07T07:58:32.599Z,59.98
2022-09-07T07:59:35.653Z,60.20
2022-09-07T08:00:53.662Z,59.95
2022-09-07T08:01:57.566Z,59.89
2022-09-07T08:03:01.595Z,59.68
2022-09-07T08:04:04.621Z,59.59
2022-09-07T08:05:08.340Z,59.47
2022-09-07T08:06:13.510Z,59.44
2022-09-07T08:07:16.469Z,59.41
2022-09-07T08:08:19.890Z,58.56
2022-09-07T08:09:22.896Z,58.58
2022-09-07T08:10:30.354Z,58.90
2022-09-07T08:11:34.465Z,58.87
2022-09-07T08:12:37.354Z,57.41
2022-09-07T08:13:42.139Z,57.76
2022-09-07T08:14:46.714Z,58.80
2022-09-07T08:15:52.846Z,58.36
2022-09-07T08:16:57.167Z,58.04
2022-09-07T08:18:00.065Z,57.51
2022-09-07T08:19:02.928Z,56.65
2022-09-07T08:20:06.194Z,56.13
2022-09-07T08:21:13.239Z,55.95
2022-09-07T08:22:16.317Z,55.48
2022-09-07T08:23:20.650Z,53.45
2022-09-07T08:24:25.060Z,54.22
2022-09-07T08:25:28.637Z,54.36
2022-09-07T08:26:31.515Z,54.04
2022-09-07T08:27:35.249Z,53.62
2022-09-07T08:28:39.336Z,52.95
2022-09-07T08:29:42.249Z,52.79
2022-09-07T08:30:45.232Z,52.23
2022-09-07T08:31:48.555Z,52.33
2022-09-07T08:32:52.013Z,51.84
2022-09-07T08:33:54.999Z,52.05
2022-09-07T08:34:59.181Z,52.32
2022-09-07T08:36:05.644Z,51.96
2022-09-07T08:37:08.652Z,51.43
2022-09-07T08:38:11.646Z,51.62
2022-09-07T08:39:14.450Z,51.91
2022-09-07T08:40:18.174Z,51.80
2022-09-07T08:41:21.429Z,51.86
2022-09-07T08:42:27.244Z,51.82
2022-09-07T08:43:59.830Z,51.86
2022-09-07T08:45:06.015Z,51.38
2022-09-07T08:46:19.585Z,51.36
2022-09-07T08:47:40.936Z,51.43
2022-09-07T08:48:44.284Z,51.79
2022-09-07T08:49:47.311Z,52.73
2022-09-07T08:50:56.356Z,53.41
2022-09-07T08:52:04.449Z,53.47
2022-09-07T08:53:13.604Z,52.91
2022-09-07T08:54:17.467Z,52.85
2022-09-07T08:55:23.285Z,52.72
2022-09-07T08:56:36.094Z,52.81
2022-09-07T08:57:41.390Z,52.82
2022-09-07T08:58:53.848Z,52.55
2022-09-07T08:59:58.199Z,52.59
2022-09-07T09:02:27.662Z,52.33
2022-09-07T09:03:34.900Z,52.32
2022-09-07T09:06:47.729Z,52.26
2022-09-07T09:08:08.275Z,52.28
2022-09-07T09:09:14.182Z,52.16
2022-09-07T09:10:19.885Z,51.90
2022-09-07T09:11:25.274Z,52.03
2022-09-07T09:12:40.571Z,52.33
2022-09-07T09:13:55.555Z,52.12
2022-09-07T09:15:10.011Z,52.46
2022-09-07T09:16:16.107Z,50.72
2022-09-07T09:17:19.035Z,50.44
2022-09-07T09:18:34.676Z,50.16
2022-09-07T09:19:49.823Z,49.86
2022-09-07T09:20:54.339Z,50.34
2022-09-07T09:22:08.174Z,50.79
2022-09-07T09:23:15.004Z,50.09
2022-09-07T09:24:19.796Z,50.26
2022-09-07T09:25:27.000Z,50.09
2022-09-07T09:26:31.479Z,50.43
2022-09-07T09:27:34.359Z,50.52
2022-09-07T09:28:38.721Z,50.44
2022-09-07T09:29:42.125Z,51.13
2022-09-07T09:30:45.459Z,51.50
2022-09-07T09:31:48.458Z,50.41
2022-09-07T09:32:53.040Z,50.15
2022-09-07T09:34:05.429Z,50.09
2022-09-07T09:35:14.554Z,49.65
2022-09-07T09:36:25.800Z,49.78
2022-09-07T09:37:35.878Z,49.84
2022-09-07T09:38:47.107Z,50.14
2022-09-07T09:40:00.588Z,49.38
2022-09-07T09:41:05.914Z,48.77
2022-09-07T09:42:11.746Z,48.85
2022-09-07T09:43:21.571Z,49.01
2022-09-07T09:44:26.594Z,49.51
2022-09-07T09:46:11.731Z,48.91
2022-09-07T09:48:35.415Z,48.10
2022-09-07T09:49:40.099Z,48.65
2022-09-07T09:52:32.039Z,47.77
2022-09-07T09:53:39.140Z,47.36
2022-09-07T09:54:43.612Z,46.84
2022-09-07T09:55:50.993Z,47.32
2022-09-07T09:56:54.356Z,46.77
2022-09-07T10:04:56.615Z,45.44
2022-09-07T10:06:02.583Z,45.48
2022-09-07T10:07:11.636Z,45.75
2022-09-07T10:08:19.737Z,46.08
2022-09-07T10:09:25.157Z,44.21
2022-09-07T10:10:28.868Z,43.37
2022-09-07T10:12:18.275Z,43.08
2022-09-07T10:13:20.089Z,43.10
2022-09-07T10:14:33.855Z,43.14
2022-09-07T10:15:40.421Z,43.26
2022-09-07T10:16:45.046Z,42.70
2022-09-07T10:17:49.936Z,40.99
2022-09-07T10:18:59.057Z,42.02
2022-09-07T10:20:22.012Z,41.78
2022-09-07T10:21:28.666Z,41.74
2022-09-07T10:22:32.270Z,41.82
2022-09-07T10:23:35.102Z,42.62
2022-09-07T10:24:39.832Z,41.75
2022-09-07T10:25:45.944Z,41.61
2022-09-07T10:26:48.908Z,41.91
2022-09-07T10:28:16.715Z,42.14
2022-09-07T10:29:25.754Z,41.44
2022-09-07T10:30:29.885Z,41.07
2022-09-07T10:31:34.284Z,41.84
2022-09-07T10:32:44.289Z,42.24
2022-09-07T10:35:30.834Z,41.91
2022-09-07T10:36:42.805Z,42.24
2022-09-07T10:38:04.267Z,42.75
2022-09-07T10:39:11.503Z,42.56
2022-09-07T10:40:22.056Z,43.10
2022-09-07T10:41:32.635Z,42.96
2022-09-07T10:42:37.488Z,42.92
2022-09-07T10:43:44.862Z,42.76
2022-09-07T10:44:50.853Z,42.86
2022-09-07T10:45:56.736Z,42.02
2022-09-07T10:47:07.457Z,41.67
2022-09-07T10:48:20.894Z,41.58
2022-09-07T10:49:30.013Z,41.60
2022-09-07T10:50:39.804Z,41.75
2022-09-07T10:52:12.024Z,41.88
2022-09-07T10:53:41.400Z,42.58
2022-09-07T10:54:50.886Z,43.12
2022-09-07T10:55:53.719Z,43.41
2022-09-07T10:57:05.400Z,43.71
2022-09-07T11:00:08.271Z,43.46
2022-09-07T11:01:17.730Z,43.93
2022-09-07T11:02:30.381Z,43.04
2022-09-07T11:03:33.323Z,42.98
2022-09-07T11:04:56.243Z,43.13
2022-09-07T11:06:14.676Z,43.30
2022-09-07T11:07:17.496Z,43.20
2022-09-07T11:10:17.535Z,43.13
2022-09-07T11:12:58.197Z,44.04
2022-09-07T11:14:22.347Z,44.53
2022-09-07T11:15:27.635Z,43.39
2022-09-07T11:18:02.347Z,43.96
2022-09-07T11:20:34.006Z,42.61
2022-09-07T11:23:07.814Z,42.36
2022-09-07T11:24:14.075Z,41.81
2022-09-07T11:25:39.481Z,40.70
2022-09-07T11:26:50.940Z,40.90
2022-09-07T11:27:59.624Z,42.19
2022-09-07T11:30:40.317Z,42.89
2022-09-07T11:31:47.823Z,42.84
2022-09-07T11:33:03.372Z,42.16
2022-09-07T11:34:24.103Z,40.90
2022-09-07T11:35:45.404Z,41.02
2022-09-07T11:36:55.326Z,40.09
2022-09-07T11:38:00.434Z,39.44
2022-09-07T11:39:22.350Z,39.71
2022-09-07T11:40:27.882Z,39.66
2022-09-07T11:41:34.242Z,39.57
2022-09-07T11:42:43.561Z,39.46
2022-09-07T11:43:48.831Z,39.22
2022-09-07T11:44:56.299Z,38.90
2022-09-07T11:46:11.201Z,38.42
2022-09-07T11:47:20.903Z,39.18
2022-09-07T11:48:31.090Z,39.31
2022-09-07T11:49:34.188Z,39.76
2022-09-07T11:50:41.980Z,39.36
2022-09-07T11:51:44.825Z,40.16
2022-09-07T11:52:53.487Z,40.48
2022-09-07T11:54:01.641Z,40.93
2022-09-07T11:55:08.305Z,41.42
2022-09-07T11:56:18.665Z,40.92
2022-09-07T11:57:21.592Z,40.83
2022-09-07T11:58:43.259Z,41.30
2022-09-07T11:59:49.594Z,41.76
2022-09-07T12:00:52.501Z,41.88
2022-09-07T12:01:58.509Z,41.70
2022-09-07T12:03:02.374Z,42.04
2022-09-07T12:04:18.998Z,42.22
2022-09-07T12:05:42.158Z,42.58
2022-09-07T12:07:10.173Z,43.14
2022-09-07T12:08:21.902Z,43.07
2022-09-07T12:09:24.940Z,43.16
2022-09-07T12:10:42.156Z,42.22
2022-09-07T12:12:00.138Z,42.93
2022-09-07T12:13:03.013Z,42.50
2022-09-07T12:14:41.516Z,42.31
2022-09-07T12:15:53.215Z,42.59
2022-09-07T12:17:04.678Z,42.79
2022-09-07T12:18:17.425Z,42.65
2022-09-07T12:19:21.690Z,42.89
2022-09-07T12:20:28.101Z,42.52
2022-09-07T12:21:30.944Z,42.27
2022-09-07T12:22:34.430Z,42.80
2022-09-07T12:23:37.313Z,42.80
2022-09-07T12:24:49.840Z,43.06
2022-09-07T12:26:14.343Z,42.88
2022-09-07T12:27:20.213Z,42.73
2022-09-07T12:28:23.236Z,42.53
2022-09-07T12:29:27.401Z,42.40
2022-09-07T12:30:30.860Z,42.72
2022-09-07T12:31:57.160Z,42.71
2022-09-07T12:33:06.386Z,42.34
2022-09-07T12:34:35.649Z,42.60
2022-09-07T12:35:41.510Z,42.35
2022-09-07T12:36:49.994Z,42.87
2022-09-07T12:38:06.155Z,42.74
2022-09-07T12:39:25.287Z,42.73
2022-09-07T12:40:32.237Z,42.57
2022-09-07T12:43:20.259Z,42.38
2022-09-07T12:44:27.284Z,42.48
2022-09-07T12:45:32.309Z,41.98
2022-09-07T12:46:35.549Z,41.82
2022-09-07T12:47:41.476Z,41.58
2022-09-07T12:49:00.411Z,41.77
2022-09-07T12:50:06.728Z,40.46
2022-09-07T12:53:10.255Z,40.93
2022-09-07T12:54:36.551Z,41.23
2022-09-07T12:57:30.117Z,41.02
2022-09-07T12:58:42.170Z,41.25
2022-09-07T12:59:51.304Z,41.07
2022-09-07T13:01:00.554Z,40.83
2022-09-07T13:02:03.545Z,40.83
2022-09-07T13:04:53.298Z,41.11
2022-09-07T13:06:04.543Z,41.31
2022-09-07T13:07:18.486Z,41.06
2022-09-07T13:08:39.447Z,41.08
2022-09-07T13:09:45.365Z,40.75
2022-09-07T13:10:48.365Z,40.78
2022-09-07T13:11:51.504Z,39.88
2022-09-07T13:12:59.375Z,40.00
2022-09-07T13:14:09.370Z,39.80
2022-09-07T13:15:31.131Z,38.97
2022-09-07T13:17:59.832Z,37.96
2022-09-07T13:19:03.837Z,37.24
2022-09-07T13:20:18.614Z,36.38
2022-09-07T13:21:35.632Z,36.88
2022-09-07T13:22:38.728Z,37.57
2022-09-07T13:23:45.772Z,36.94
2022-09-07T13:24:52.770Z,36.45
2022-09-07T13:26:00.537Z,37.10
2022-09-07T13:27:22.677Z,37.05
2022-09-07T13:28:29.219Z,37.51
2022-09-07T13:29:41.237Z,37.96
2022-09-07T13:31:11.332Z,38.06
2022-09-07T13:33:08.026Z,38.64
2022-09-07T13:33:51.147Z,39.10
2022-09-07T13:35:04.776Z,38.96
2022-09-07T13:36:16.473Z,38.55
2022-09-07T13:37:21.030Z,38.75
2022-09-07T13:38:24.047Z,38.19
2022-09-07T13:39:28.663Z,38.03
2022-09-07T13:40:38.013Z,38.46
2022-09-07T13:41:48.292Z,39.62
2022-09-07T13:42:52.533Z,39.43
2022-09-07T13:44:00.108Z,38.38
2022-09-07T13:45:05.955Z,38.06
2022-09-07T13:46:17.114Z,38.45
2022-09-07T13:47:29.169Z,38.30
2022-09-07T13:48:42.187Z,38.16
2022-09-07T13:50:08.166Z,38.29
2022-09-07T13:51:19.149Z,38.42
2022-09-07T13:52:27.625Z,38.74
2022-09-07T13:53:36.274Z,38.79
2022-09-07T13:54:39.592Z,38.88
2022-09-07T13:56:05.629Z,38.67
2022-09-07T13:57:20.598Z,38.66
2022-09-07T13:58:51.709Z,38.82
2022-09-07T13:59:55.581Z,39.72
2022-09-07T14:01:05.144Z,40.04
2022-09-07T14:02:20.609Z,40.04
2022-09-07T14:03:25.609Z,40.12
2022-09-07T14:04:37.292Z,40.28
2022-09-07T14:05:40.124Z,39.03
2022-09-07T14:06:43.172Z,39.92
2022-09-07T14:07:46.565Z,39.79
2022-09-07T14:08:49.592Z,39.69
2022-09-07T14:10:19.553Z,39.66
2022-09-07T14:11:22.453Z,39.75
2022-09-07T14:12:25.454Z,39.79
2022-09-07T14:13:28.775Z,39.58
2022-09-07T14:14:33.394Z,39.67
2022-09-07T14:15:39.590Z,39.91
2022-09-07T14:16:44.436Z,40.17
2022-09-07T14:17:47.704Z,40.19
2022-09-07T14:18:50.673Z,39.73
2022-09-07T14:19:59.215Z,39.76
2022-09-07T14:21:04.680Z,39.67
2022-09-07T14:22:13.418Z,39.33
2022-09-07T14:23:29.967Z,39.88
2022-09-07T14:24:36.774Z,40.20
2022-09-07T14:27:03.744Z,39.89
2022-09-07T14:28:26.819Z,39.79
2022-09-07T14:29:31.724Z,39.55
2022-09-07T14:30:34.734Z,39.74
2022-09-07T14:31:37.672Z,40.02
2022-09-07T14:32:41.608Z,40.02
2022-09-07T14:33:50.851Z,40.41
2022-09-07T14:34:54.253Z,40.89
2022-09-07T14:35:58.257Z,41.54
2022-09-07T14:37:04.596Z,41.61
2022-09-07T14:38:14.555Z,41.70
2022-09-07T14:39:19.796Z,41.74
2022-09-07T14:40:25.453Z,41.41
2022-09-07T14:41:33.060Z,41.45
2022-09-07T14:42:35.940Z,41.42
2022-09-07T14:43:50.968Z,41.75
2022-09-07T14:45:14.014Z,41.53
2022-09-07T14:46:17.054Z,40.89
2022-09-07T14:47:31.002Z,40.84
2022-09-07T14:48:34.667Z,40.90
2022-09-07T14:49:39.130Z,41.03
2022-09-07T14:50:46.969Z,41.95
2022-09-07T14:51:52.319Z,42.29
2022-09-07T14:54:23.880Z,42.40
2022-09-07T14:55:35.090Z,41.81
2022-09-07T14:56:43.183Z,41.56
2022-09-07T14:57:46.041Z,41.69
2022-09-07T14:58:49.782Z,41.51
2022-09-07T14:59:54.024Z,42.33
2022-09-07T15:01:40.039Z,42.12
2022-09-07T15:02:42.965Z,42.27
2022-09-07T15:03:48.731Z,42.10
2022-09-07T15:05:10.583Z,41.94
2022-09-07T15:07:01.020Z,42.18
2022-09-07T15:07:36.538Z,42.07
2022-09-07T15:08:49.493Z,42.59
2022-09-07T15:09:55.079Z,42.42
2022-09-07T15:12:38.166Z,42.61
2022-09-07T15:13:42.752Z,42.74
2022-09-07T15:14:47.581Z,42.57
2022-09-07T15:16:04.313Z,42.77
2022-09-07T15:18:54.418Z,43.56
2022-09-07T15:19:57.347Z,43.47
2022-09-07T15:21:00.284Z,43.64
2022-09-07T15:22:05.414Z,43.50
2022-09-07T15:23:10.354Z,43.31
2022-09-07T15:24:13.284Z,43.56
2022-09-07T15:25:16.162Z,44.53
2022-09-07T15:27:45.196Z,45.04
2022-09-07T15:30:12.075Z,45.14
2022-09-07T15:32:39.577Z,45.20